sensor_id;sensor_type;location;lat;lon;timestamp;P1;P2;P0
76661;PMS5003;65579;45.534;6.212;2023-07-13T00:00:45;12;11;
76661;PMS5003;65579;45.534;6.212;2023-07-13T00:03:10;12;12;
76661;PMS5003;65579;45.534;6.212;2023-07-13T00:05:36;14;13;
76661;PMS5003;65579;45.534;6.212;2023-07-13T00:08:02;13;11;
76661;PMS5003;65579;45.534;6.212;2023-07-13T00:10:27;18;17;
76661;PMS5003;65579;45.534;6.212;2023-07-13T00:12:52;8;8;
76661;PMS5003;65579;45.534;6.212;2023-07-13T00:15:20;13;11;
76661;PMS5003;65579;45.534;6.212;2023-07-13T00:17:44;13;11;
76661;PMS5003;65579;45.534;6.212;2023-07-13T00:20:10;10;10;
76661;PMS5003;65579;45.534;6.212;2023-07-13T00:22:35;10;10;
76661;PMS5003;65579;45.534;6.212;2023-07-13T00:25:00;12;12;
76661;PMS5003;65579;45.534;6.212;2023-07-13T00:27:26;13;13;
76661;PMS5003;65579;45.534;6.212;2023-07-13T00:29:52;13;13;
76661;PMS5003;65579;45.534;6.212;2023-07-13T00:32:17;11;10;
76661;PMS5003;65579;45.534;6.212;2023-07-13T00:34:42;11;9;
76661;PMS5003;65579;45.534;6.212;2023-07-13T00:37:08;11;9;
76661;PMS5003;65579;45.534;6.212;2023-07-13T00:39:34;10;10;
76661;PMS5003;65579;45.534;6.212;2023-07-13T00:41:59;7;7;
76661;PMS5003;65579;45.534;6.212;2023-07-13T00:44:25;10;10;
76661;PMS5003;65579;45.534;6.212;2023-07-13T00:46:51;9;9;
76661;PMS5003;65579;45.534;6.212;2023-07-13T00:49:17;11;11;
76661;PMS5003;65579;45.534;6.212;2023-07-13T00:51:43;9;9;
76661;PMS5003;65579;45.534;6.212;2023-07-13T00:54:09;7;7;
76661;PMS5003;65579;45.534;6.212;2023-07-13T00:56:34;7;7;
76661;PMS5003;65579;45.534;6.212;2023-07-13T00:59:00;6;6;
76661;PMS5003;65579;45.534;6.212;2023-07-13T01:01:26;9;8;
76661;PMS5003;65579;45.534;6.212;2023-07-13T01:03:51;8;8;
76661;PMS5003;65579;45.534;6.212;2023-07-13T01:06:17;8;7;
76661;PMS5003;65579;45.534;6.212;2023-07-13T01:08:42;7;7;
76661;PMS5003;65579;45.534;6.212;2023-07-13T01:11:09;7;7;
76661;PMS5003;65579;45.534;6.212;2023-07-13T01:13:34;6;6;
76661;PMS5003;65579;45.534;6.212;2023-07-13T01:16:02;8;7;
76661;PMS5003;65579;45.534;6.212;2023-07-13T01:18:26;10;8;
76661;PMS5003;65579;45.534;6.212;2023-07-13T01:20:53;7;7;
76661;PMS5003;65579;45.534;6.212;2023-07-13T01:23:17;8;8;
76661;PMS5003;65579;45.534;6.212;2023-07-13T01:25:43;7;7;
76661;PMS5003;65579;45.534;6.212;2023-07-13T01:28:09;6;6;
76661;PMS5003;65579;45.534;6.212;2023-07-13T01:30:34;11;10;
76661;PMS5003;65579;45.534;6.212;2023-07-13T01:33:00;9;7;
76661;PMS5003;65579;45.534;6.212;2023-07-13T01:35:26;7;6;
76661;PMS5003;65579;45.534;6.212;2023-07-13T01:37:51;5;5;
76661;PMS5003;65579;45.534;6.212;2023-07-13T01:40:18;6;6;
76661;PMS5003;65579;45.534;6.212;2023-07-13T01:42:43;5;5;
76661;PMS5003;65579;45.534;6.212;2023-07-13T01:45:09;7;7;
76661;PMS5003;65579;45.534;6.212;2023-07-13T01:47:35;5;5;
76661;PMS5003;65579;45.534;6.212;2023-07-13T01:50:00;7;7;
76661;PMS5003;65579;45.534;6.212;2023-07-13T01:52:26;8;7;
76661;PMS5003;65579;45.534;6.212;2023-07-13T01:54:53;7;6;
76661;PMS5003;65579;45.534;6.212;2023-07-13T01:57:18;5;5;
76661;PMS5003;65579;45.534;6.212;2023-07-13T01:59:44;9;8;
76661;PMS5003;65579;45.534;6.212;2023-07-13T02:02:09;7;7;
76661;PMS5003;65579;45.534;6.212;2023-07-13T02:04:35;6;6;
76661;PMS5003;65579;45.534;6.212;2023-07-13T02:07:01;9;7;
76661;PMS5003;65579;45.534;6.212;2023-07-13T02:09:27;5;5;
76661;PMS5003;65579;45.534;6.212;2023-07-13T02:11:53;5;4;
76661;PMS5003;65579;45.534;6.212;2023-07-13T02:14:18;5;5;
76661;PMS5003;65579;45.534;6.212;2023-07-13T02:16:44;5;5;
76661;PMS5003;65579;45.534;6.212;2023-07-13T02:19:10;7;7;
76661;PMS5003;65579;45.534;6.212;2023-07-13T02:21:36;4;4;
76661;PMS5003;65579;45.534;6.212;2023-07-13T02:24:02;5;5;
76661;PMS5003;65579;45.534;6.212;2023-07-13T02:26:28;8;6;
76661;PMS5003;65579;45.534;6.212;2023-07-13T02:28:53;5;5;
76661;PMS5003;65579;45.534;6.212;2023-07-13T02:31:19;5;5;
76661;PMS5003;65579;45.534;6.212;2023-07-13T02:33:45;5;5;
76661;PMS5003;65579;45.534;6.212;2023-07-13T02:36:11;6;6;
76661;PMS5003;65579;45.534;6.212;2023-07-13T02:38:36;10;10;
76661;PMS5003;65579;45.534;6.212;2023-07-13T02:41:01;8;6;
76661;PMS5003;65579;45.534;6.212;2023-07-13T02:43:26;6;6;
76661;PMS5003;65579;45.534;6.212;2023-07-13T02:45:52;6;5;
76661;PMS5003;65579;45.534;6.212;2023-07-13T02:48:18;6;6;
76661;PMS5003;65579;45.534;6.212;2023-07-13T02:50:44;4;4;
76661;PMS5003;65579;45.534;6.212;2023-07-13T02:53:10;6;5;
76661;PMS5003;65579;45.534;6.212;2023-07-13T02:55:35;7;7;
76661;PMS5003;65579;45.534;6.212;2023-07-13T02:58:01;8;6;
76661;PMS5003;65579;45.534;6.212;2023-07-13T03:00:27;5;5;
76661;PMS5003;65579;45.534;6.212;2023-07-13T03:02:53;5;5;
76661;PMS5003;65579;45.534;6.212;2023-07-13T03:05:19;6;6;
76661;PMS5003;65579;45.534;6.212;2023-07-13T03:07:44;6;6;
76661;PMS5003;65579;45.534;6.212;2023-07-13T03:10:10;8;6;
76661;PMS5003;65579;45.534;6.212;2023-07-13T03:12:36;5;5;
76661;PMS5003;65579;45.534;6.212;2023-07-13T03:15:02;7;6;
76661;PMS5003;65579;45.534;6.212;2023-07-13T03:17:27;7;6;
76661;PMS5003;65579;45.534;6.212;2023-07-13T03:19:53;6;6;
76661;PMS5003;65579;45.534;6.212;2023-07-13T03:22:19;7;5;
76661;PMS5003;65579;45.534;6.212;2023-07-13T03:24:45;6;6;
76661;PMS5003;65579;45.534;6.212;2023-07-13T03:27:10;5;5;
76661;PMS5003;65579;45.534;6.212;2023-07-13T03:29:36;6;6;
76661;PMS5003;65579;45.534;6.212;2023-07-13T03:32:02;7;7;
76661;PMS5003;65579;45.534;6.212;2023-07-13T03:34:28;4;4;
76661;PMS5003;65579;45.534;6.212;2023-07-13T03:36:54;3;3;
76661;PMS5003;65579;45.534;6.212;2023-07-13T03:39:19;6;6;
76661;PMS5003;65579;45.534;6.212;2023-07-13T03:41:45;4;4;
76661;PMS5003;65579;45.534;6.212;2023-07-13T03:44:11;6;6;
76661;PMS5003;65579;45.534;6.212;2023-07-13T03:46:37;5;5;
76661;PMS5003;65579;45.534;6.212;2023-07-13T03:49:04;3;3;
76661;PMS5003;65579;45.534;6.212;2023-07-13T03:51:28;4;4;
76661;PMS5003;65579;45.534;6.212;2023-07-13T03:53:54;5;5;
76661;PMS5003;65579;45.534;6.212;2023-07-13T03:56:20;8;8;
76661;PMS5003;65579;45.534;6.212;2023-07-13T03:58:46;6;6;
76661;PMS5003;65579;45.534;6.212;2023-07-13T04:01:12;7;5;
76661;PMS5003;65579;45.534;6.212;2023-07-13T04:03:37;5;5;
76661;PMS5003;65579;45.534;6.212;2023-07-13T04:06:04;8;7;
76661;PMS5003;65579;45.534;6.212;2023-07-13T04:08:29;14;14;
76661;PMS5003;65579;45.534;6.212;2023-07-13T04:10:54;8;7;
76661;PMS5003;65579;45.534;6.212;2023-07-13T04:13:20;7;7;
76661;PMS5003;65579;45.534;6.212;2023-07-13T04:15:46;7;6;
76661;PMS5003;65579;45.534;6.212;2023-07-13T04:18:12;6;6;
76661;PMS5003;65579;45.534;6.212;2023-07-13T04:20:37;9;7;
76661;PMS5003;65579;45.534;6.212;2023-07-13T04:23:03;9;6;
76661;PMS5003;65579;45.534;6.212;2023-07-13T04:25:29;6;6;
76661;PMS5003;65579;45.534;6.212;2023-07-13T04:27:55;9;9;
76661;PMS5003;65579;45.534;6.212;2023-07-13T04:30:21;6;6;
76661;PMS5003;65579;45.534;6.212;2023-07-13T04:32:46;9;7;
76661;PMS5003;65579;45.534;6.212;2023-07-13T04:35:12;6;6;
76661;PMS5003;65579;45.534;6.212;2023-07-13T04:37:38;5;5;
76661;PMS5003;65579;45.534;6.212;2023-07-13T04:40:04;6;6;
76661;PMS5003;65579;45.534;6.212;2023-07-13T04:42:30;10;8;
76661;PMS5003;65579;45.534;6.212;2023-07-13T04:44:55;5;5;
76661;PMS5003;65579;45.534;6.212;2023-07-13T04:47:21;8;8;
76661;PMS5003;65579;45.534;6.212;2023-07-13T04:49:46;6;6;
76661;PMS5003;65579;45.534;6.212;2023-07-13T04:52:12;6;6;
76661;PMS5003;65579;45.534;6.212;2023-07-13T04:54:38;9;9;
76661;PMS5003;65579;45.534;6.212;2023-07-13T04:57:04;8;8;
76661;PMS5003;65579;45.534;6.212;2023-07-13T04:59:29;8;8;
76661;PMS5003;65579;45.534;6.212;2023-07-13T05:01:55;8;8;
76661;PMS5003;65579;45.534;6.212;2023-07-13T05:04:21;9;9;
76661;PMS5003;65579;45.534;6.212;2023-07-13T05:06:47;11;9;
76661;PMS5003;65579;45.534;6.212;2023-07-13T05:09:12;8;8;
76661;PMS5003;65579;45.534;6.212;2023-07-13T05:11:38;6;6;
76661;PMS5003;65579;45.534;6.212;2023-07-13T05:14:03;7;7;
76661;PMS5003;65579;45.534;6.212;2023-07-13T05:16:28;14;12;
76661;PMS5003;65579;45.534;6.212;2023-07-13T05:18:54;11;10;
76661;PMS5003;65579;45.534;6.212;2023-07-13T05:21:20;5;5;
76661;PMS5003;65579;45.534;6.212;2023-07-13T05:23:47;7;7;
76661;PMS5003;65579;45.534;6.212;2023-07-13T05:26:11;5;5;
76661;PMS5003;65579;45.534;6.212;2023-07-13T05:28:37;6;6;
76661;PMS5003;65579;45.534;6.212;2023-07-13T05:31:02;7;7;
76661;PMS5003;65579;45.534;6.212;2023-07-13T05:33:28;6;6;
76661;PMS5003;65579;45.534;6.212;2023-07-13T05:35:54;5;5;
76661;PMS5003;65579;45.534;6.212;2023-07-13T05:38:20;6;4;
76661;PMS5003;65579;45.534;6.212;2023-07-13T05:40:46;4;4;
76661;PMS5003;65579;45.534;6.212;2023-07-13T05:43:11;4;4;
76661;PMS5003;65579;45.534;6.212;2023-07-13T05:45:37;4;4;
76661;PMS5003;65579;45.534;6.212;2023-07-13T05:48:02;4;4;
76661;PMS5003;65579;45.534;6.212;2023-07-13T05:50:28;4;4;
76661;PMS5003;65579;45.534;6.212;2023-07-13T05:52:54;5;5;
76661;PMS5003;65579;45.534;6.212;2023-07-13T05:55:20;6;6;
76661;PMS5003;65579;45.534;6.212;2023-07-13T05:57:45;5;5;
76661;PMS5003;65579;45.534;6.212;2023-07-13T06:00:11;5;5;
76661;PMS5003;65579;45.534;6.212;2023-07-13T06:02:37;4;4;
76661;PMS5003;65579;45.534;6.212;2023-07-13T06:05:03;4;4;
76661;PMS5003;65579;45.534;6.212;2023-07-13T06:07:28;4;4;
76661;PMS5003;65579;45.534;6.212;2023-07-13T06:09:54;4;4;
76661;PMS5003;65579;45.534;6.212;2023-07-13T06:12:20;2;2;
76661;PMS5003;65579;45.534;6.212;2023-07-13T06:14:45;4;4;
76661;PMS5003;65579;45.534;6.212;2023-07-13T06:17:11;4;4;
76661;PMS5003;65579;45.534;6.212;2023-07-13T06:19:37;2;2;
76661;PMS5003;65579;45.534;6.212;2023-07-13T06:22:03;3;3;
76661;PMS5003;65579;45.534;6.212;2023-07-13T06:24:29;3;3;
76661;PMS5003;65579;45.534;6.212;2023-07-13T06:26:54;4;2;
76661;PMS5003;65579;45.534;6.212;2023-07-13T06:29:20;3;3;
76661;PMS5003;65579;45.534;6.212;2023-07-13T06:31:46;3;3;
76661;PMS5003;65579;45.534;6.212;2023-07-13T06:34:12;3;3;
76661;PMS5003;65579;45.534;6.212;2023-07-13T06:36:38;3;3;
76661;PMS5003;65579;45.534;6.212;2023-07-13T06:39:03;3;3;
76661;PMS5003;65579;45.534;6.212;2023-07-13T06:41:29;3;3;
76661;PMS5003;65579;45.534;6.212;2023-07-13T06:43:55;3;3;
76661;PMS5003;65579;45.534;6.212;2023-07-13T06:46:20;2;2;
76661;PMS5003;65579;45.534;6.212;2023-07-13T06:48:46;3;3;
76661;PMS5003;65579;45.534;6.212;2023-07-13T06:51:12;5;4;
76661;PMS5003;65579;45.534;6.212;2023-07-13T06:53:38;5;3;
76661;PMS5003;65579;45.534;6.212;2023-07-13T06:56:04;6;5;
76661;PMS5003;65579;45.534;6.212;2023-07-13T06:58:29;2;2;
76661;PMS5003;65579;45.534;6.212;2023-07-13T07:00:55;3;1;
76661;PMS5003;65579;45.534;6.212;2023-07-13T07:03:21;3;3;
76661;PMS5003;65579;45.534;6.212;2023-07-13T07:05:47;3;3;
76661;PMS5003;65579;45.534;6.212;2023-07-13T07:08:12;4;3;
76661;PMS5003;65579;45.534;6.212;2023-07-13T07:10:39;2;2;
76661;PMS5003;65579;45.534;6.212;2023-07-13T07:13:04;2;2;
76661;PMS5003;65579;45.534;6.212;2023-07-13T07:15:30;3;3;
76661;PMS5003;65579;45.534;6.212;2023-07-13T07:17:56;2;2;
76661;PMS5003;65579;45.534;6.212;2023-07-13T07:20:22;2;2;
76661;PMS5003;65579;45.534;6.212;2023-07-13T07:22:47;4;2;
76661;PMS5003;65579;45.534;6.212;2023-07-13T07:25:13;2;2;
76661;PMS5003;65579;45.534;6.212;2023-07-13T07:27:39;2;2;
76661;PMS5003;65579;45.534;6.212;2023-07-13T07:30:05;3;2;
76661;PMS5003;65579;45.534;6.212;2023-07-13T07:32:32;4;3;
76661;PMS5003;65579;45.534;6.212;2023-07-13T07:34:57;2;2;
76661;PMS5003;65579;45.534;6.212;2023-07-13T07:37:22;2;2;
76661;PMS5003;65579;45.534;6.212;2023-07-13T07:39:48;1;1;
76661;PMS5003;65579;45.534;6.212;2023-07-13T07:42:13;2;2;
76661;PMS5003;65579;45.534;6.212;2023-07-13T07:44:40;2;2;
76661;PMS5003;65579;45.534;6.212;2023-07-13T07:47:05;1;1;
76661;PMS5003;65579;45.534;6.212;2023-07-13T07:49:31;1;1;
76661;PMS5003;65579;45.534;6.212;2023-07-13T07:51:56;1;1;
76661;PMS5003;65579;45.534;6.212;2023-07-13T07:54:22;1;1;
76661;PMS5003;65579;45.534;6.212;2023-07-13T07:56:48;0;0;
76661;PMS5003;65579;45.534;6.212;2023-07-13T07:59:14;2;2;
76661;PMS5003;65579;45.534;6.212;2023-07-13T08:01:40;2;2;
76661;PMS5003;65579;45.534;6.212;2023-07-13T08:04:05;3;3;
76661;PMS5003;65579;45.534;6.212;2023-07-13T08:06:31;1;1;
76661;PMS5003;65579;45.534;6.212;2023-07-13T08:08:57;1;1;
76661;PMS5003;65579;45.534;6.212;2023-07-13T08:11:23;3;2;
76661;PMS5003;65579;45.534;6.212;2023-07-13T08:13:49;1;1;
76661;PMS5003;65579;45.534;6.212;2023-07-13T08:16:15;1;1;
76661;PMS5003;65579;45.534;6.212;2023-07-13T08:18:41;1;1;
76661;PMS5003;65579;45.534;6.212;2023-07-13T08:21:07;3;3;
76661;PMS5003;65579;45.534;6.212;2023-07-13T08:23:32;1;1;
76661;PMS5003;65579;45.534;6.212;2023-07-13T08:25:58;1;1;
76661;PMS5003;65579;45.534;6.212;2023-07-13T08:28:24;0;0;
76661;PMS5003;65579;45.534;6.212;2023-07-13T08:30:49;2;2;
76661;PMS5003;65579;45.534;6.212;2023-07-13T08:33:15;0;0;
76661;PMS5003;65579;45.534;6.212;2023-07-13T08:35:41;2;2;
76661;PMS5003;65579;45.534;6.212;2023-07-13T08:38:07;3;3;
76661;PMS5003;65579;45.534;6.212;2023-07-13T08:40:33;2;2;
76661;PMS5003;65579;45.534;6.212;2023-07-13T08:42:58;2;2;
76661;PMS5003;65579;45.534;6.212;2023-07-13T08:45:25;2;1;
76661;PMS5003;65579;45.534;6.212;2023-07-13T08:47:51;1;1;
76661;PMS5003;65579;45.534;6.212;2023-07-13T08:50:16;2;2;
76661;PMS5003;65579;45.534;6.212;2023-07-13T08:52:42;1;1;
76661;PMS5003;65579;45.534;6.212;2023-07-13T08:55:09;1;1;
76661;PMS5003;65579;45.534;6.212;2023-07-13T08:57:33;1;1;
76661;PMS5003;65579;45.534;6.212;2023-07-13T08:59:58;1;1;
76661;PMS5003;65579;45.534;6.212;2023-07-13T09:02:26;2;2;
76661;PMS5003;65579;45.534;6.212;2023-07-13T09:04:50;2;2;
76661;PMS5003;65579;45.534;6.212;2023-07-13T09:07:18;3;1;
76661;PMS5003;65579;45.534;6.212;2023-07-13T09:09:45;2;2;
76661;PMS5003;65579;45.534;6.212;2023-07-13T09:12:08;2;2;
76661;PMS5003;65579;45.534;6.212;2023-07-13T09:14:35;0;0;
76661;PMS5003;65579;45.534;6.212;2023-07-13T09:16:58;1;1;
76661;PMS5003;65579;45.534;6.212;2023-07-13T09:19:26;1;1;
76661;PMS5003;65579;45.534;6.212;2023-07-13T09:21:50;1;1;
76661;PMS5003;65579;45.534;6.212;2023-07-13T09:24:26;3;2;
76661;PMS5003;65579;45.534;6.212;2023-07-13T09:26:41;1;1;
76661;PMS5003;65579;45.534;6.212;2023-07-13T09:29:09;1;1;
76661;PMS5003;65579;45.534;6.212;2023-07-13T09:31:33;2;2;
76661;PMS5003;65579;45.534;6.212;2023-07-13T09:33:59;1;1;
76661;PMS5003;65579;45.534;6.212;2023-07-13T09:36:25;2;2;
76661;PMS5003;65579;45.534;6.212;2023-07-13T09:41:19;1;1;
76661;PMS5003;65579;45.534;6.212;2023-07-13T09:48:34;4;2;
76661;PMS5003;65579;45.534;6.212;2023-07-13T09:50:59;1;1;
76661;PMS5003;65579;45.534;6.212;2023-07-13T09:53:24;2;2;
76661;PMS5003;65579;45.534;6.212;2023-07-13T09:55:50;0;0;
76661;PMS5003;65579;45.534;6.212;2023-07-13T09:58:16;1;1;
76661;PMS5003;65579;45.534;6.212;2023-07-13T10:00:42;1;1;
76661;PMS5003;65579;45.534;6.212;2023-07-13T10:05:39;2;2;
76661;PMS5003;65579;45.534;6.212;2023-07-13T10:07:58;2;2;
76661;PMS5003;65579;45.534;6.212;2023-07-13T10:10:24;1;1;
76661;PMS5003;65579;45.534;6.212;2023-07-13T10:12:50;1;1;
76661;PMS5003;65579;45.534;6.212;2023-07-13T10:15:17;1;1;
76661;PMS5003;65579;45.534;6.212;2023-07-13T10:17:41;2;2;
76661;PMS5003;65579;45.534;6.212;2023-07-13T10:20:07;2;2;
76661;PMS5003;65579;45.534;6.212;2023-07-13T10:22:36;3;2;
76661;PMS5003;65579;45.534;6.212;2023-07-13T10:24:58;1;1;
76661;PMS5003;65579;45.534;6.212;2023-07-13T10:27:25;2;2;
76661;PMS5003;65579;45.534;6.212;2023-07-13T10:29:50;1;1;
76661;PMS5003;65579;45.534;6.212;2023-07-13T10:32:15;2;2;
76661;PMS5003;65579;45.534;6.212;2023-07-13T10:34:41;1;1;
76661;PMS5003;65579;45.534;6.212;2023-07-13T10:37:07;2;2;
76661;PMS5003;65579;45.534;6.212;2023-07-13T10:39:32;2;2;
76661;PMS5003;65579;45.534;6.212;2023-07-13T10:41:59;2;2;
76661;PMS5003;65579;45.534;6.212;2023-07-13T10:44:24;0;0;
76661;PMS5003;65579;45.534;6.212;2023-07-13T10:46:49;2;2;
76661;PMS5003;65579;45.534;6.212;2023-07-13T10:49:14;1;1;
76661;PMS5003;65579;45.534;6.212;2023-07-13T10:51:40;2;2;
76661;PMS5003;65579;45.534;6.212;2023-07-13T10:54:14;2;2;
76661;PMS5003;65579;45.534;6.212;2023-07-13T10:56:32;1;1;
76661;PMS5003;65579;45.534;6.212;2023-07-13T10:59:01;2;2;
76661;PMS5003;65579;45.534;6.212;2023-07-13T11:01:23;1;1;
76661;PMS5003;65579;45.534;6.212;2023-07-13T11:03:49;2;2;
76661;PMS5003;65579;45.534;6.212;2023-07-13T11:06:15;1;1;
76661;PMS5003;65579;45.534;6.212;2023-07-13T11:13:37;3;3;
76661;PMS5003;65579;45.534;6.212;2023-07-13T11:15:57;3;1;
76661;PMS5003;65579;45.534;6.212;2023-07-13T11:18:23;2;2;
76661;PMS5003;65579;45.534;6.212;2023-07-13T11:20:48;2;2;
76661;PMS5003;65579;45.534;6.212;2023-07-13T11:23:19;2;2;
76661;PMS5003;65579;45.534;6.212;2023-07-13T11:25:39;1;1;
76661;PMS5003;65579;45.534;6.212;2023-07-13T11:28:11;1;1;
76661;PMS5003;65579;45.534;6.212;2023-07-13T11:30:32;1;1;
76661;PMS5003;65579;45.534;6.212;2023-07-13T11:33:04;2;2;
76661;PMS5003;65579;45.534;6.212;2023-07-13T11:35:23;1;1;
76661;PMS5003;65579;45.534;6.212;2023-07-13T11:37:48;2;2;
76661;PMS5003;65579;45.534;6.212;2023-07-13T11:40:13;1;1;
76661;PMS5003;65579;45.534;6.212;2023-07-13T11:42:39;2;2;
76661;PMS5003;65579;45.534;6.212;2023-07-13T11:45:14;4;3;
76661;PMS5003;65579;45.534;6.212;2023-07-13T11:47:30;3;3;
76661;PMS5003;65579;45.534;6.212;2023-07-13T11:49:56;2;2;
76661;PMS5003;65579;45.534;6.212;2023-07-13T11:52:22;2;2;
76661;PMS5003;65579;45.534;6.212;2023-07-13T11:54:48;2;2;
76661;PMS5003;65579;45.534;6.212;2023-07-13T11:57:16;2;2;
76661;PMS5003;65579;45.534;6.212;2023-07-13T11:59:39;1;1;
76661;PMS5003;65579;45.534;6.212;2023-07-13T12:02:10;2;2;
76661;PMS5003;65579;45.534;6.212;2023-07-13T12:04:31;1;0;
76661;PMS5003;65579;45.534;6.212;2023-07-13T12:06:56;2;2;
76661;PMS5003;65579;45.534;6.212;2023-07-13T12:09:21;2;2;
76661;PMS5003;65579;45.534;6.212;2023-07-13T12:11:47;2;2;
76661;PMS5003;65579;45.534;6.212;2023-07-13T12:14:13;0;0;
76661;PMS5003;65579;45.534;6.212;2023-07-13T12:16:38;2;2;
76661;PMS5003;65579;45.534;6.212;2023-07-13T12:19:12;2;1;
76661;PMS5003;65579;45.534;6.212;2023-07-13T12:21:30;3;1;
76661;PMS5003;65579;45.534;6.212;2023-07-13T12:23:55;2;2;
76661;PMS5003;65579;45.534;6.212;2023-07-13T12:26:20;0;0;
76661;PMS5003;65579;45.534;6.212;2023-07-13T12:28:47;2;2;
76661;PMS5003;65579;45.534;6.212;2023-07-13T12:33:39;0;0;
76661;PMS5003;65579;45.534;6.212;2023-07-13T12:36:04;2;2;
76661;PMS5003;65579;45.534;6.212;2023-07-13T12:38:30;3;1;
76661;PMS5003;65579;45.534;6.212;2023-07-13T12:40:54;2;2;
76661;PMS5003;65579;45.534;6.212;2023-07-13T12:43:20;2;2;
76661;PMS5003;65579;45.534;6.212;2023-07-13T12:48:13;1;1;
76661;PMS5003;65579;45.534;6.212;2023-07-13T12:50:38;4;4;
76661;PMS5003;65579;45.534;6.212;2023-07-13T12:53:04;2;2;
76661;PMS5003;65579;45.534;6.212;2023-07-13T12:55:28;0;0;
76661;PMS5003;65579;45.534;6.212;2023-07-13T12:57:54;3;3;
76661;PMS5003;65579;45.534;6.212;2023-07-13T13:00:21;3;3;
76661;PMS5003;65579;45.534;6.212;2023-07-13T13:02:45;3;3;
76661;PMS5003;65579;45.534;6.212;2023-07-13T13:05:12;2;2;
76661;PMS5003;65579;45.534;6.212;2023-07-13T13:07:36;2;2;
76661;PMS5003;65579;45.534;6.212;2023-07-13T13:10:07;3;3;
76661;PMS5003;65579;45.534;6.212;2023-07-13T13:12:27;2;2;
76661;PMS5003;65579;45.534;6.212;2023-07-13T13:14:53;1;1;
76661;PMS5003;65579;45.534;6.212;2023-07-13T13:17:21;0;0;
76661;PMS5003;65579;45.534;6.212;2023-07-13T13:19:45;2;2;
76661;PMS5003;65579;45.534;6.212;2023-07-13T13:22:10;1;1;
76661;PMS5003;65579;45.534;6.212;2023-07-13T13:24:36;2;2;
76661;PMS5003;65579;45.534;6.212;2023-07-13T13:27:01;0;0;
76661;PMS5003;65579;45.534;6.212;2023-07-13T13:29:27;2;2;
76661;PMS5003;65579;45.534;6.212;2023-07-13T13:31:52;1;1;
76661;PMS5003;65579;45.534;6.212;2023-07-13T13:34:18;1;1;
76661;PMS5003;65579;45.534;6.212;2023-07-13T13:36:44;2;2;
76661;PMS5003;65579;45.534;6.212;2023-07-13T13:41:35;0;0;
76661;PMS5003;65579;45.534;6.212;2023-07-13T13:44:00;3;1;
76661;PMS5003;65579;45.534;6.212;2023-07-13T13:46:26;2;2;
76661;PMS5003;65579;45.534;6.212;2023-07-13T13:48:52;0;0;
76661;PMS5003;65579;45.534;6.212;2023-07-13T13:51:18;1;1;
76661;PMS5003;65579;45.534;6.212;2023-07-13T13:53:43;1;1;
76661;PMS5003;65579;45.534;6.212;2023-07-13T13:56:08;1;1;
76661;PMS5003;65579;45.534;6.212;2023-07-13T13:58:34;2;1;
76661;PMS5003;65579;45.534;6.212;2023-07-13T14:01:00;3;2;
76661;PMS5003;65579;45.534;6.212;2023-07-13T14:03:25;1;1;
76661;PMS5003;65579;45.534;6.212;2023-07-13T14:05:51;2;1;
76661;PMS5003;65579;45.534;6.212;2023-07-13T14:08:18;1;1;
76661;PMS5003;65579;45.534;6.212;2023-07-13T14:10:42;1;0;
76661;PMS5003;65579;45.534;6.212;2023-07-13T14:13:13;1;1;
76661;PMS5003;65579;45.534;6.212;2023-07-13T14:15:33;1;1;
76661;PMS5003;65579;45.534;6.212;2023-07-13T14:17:59;2;2;
76661;PMS5003;65579;45.534;6.212;2023-07-13T14:20:25;1;1;
76661;PMS5003;65579;45.534;6.212;2023-07-13T14:22:50;2;2;
76661;PMS5003;65579;45.534;6.212;2023-07-13T14:25:16;2;2;
76661;PMS5003;65579;45.534;6.212;2023-07-13T14:27:41;1;1;
76661;PMS5003;65579;45.534;6.212;2023-07-13T14:32:32;0;0;
76661;PMS5003;65579;45.534;6.212;2023-07-13T14:34:58;1;1;
76661;PMS5003;65579;45.534;6.212;2023-07-13T14:37:23;2;2;
76661;PMS5003;65579;45.534;6.212;2023-07-13T14:39:49;0;0;
76661;PMS5003;65579;45.534;6.212;2023-07-13T14:42:15;4;2;
76661;PMS5003;65579;45.534;6.212;2023-07-13T14:44:40;3;1;
76661;PMS5003;65579;45.534;6.212;2023-07-13T14:47:06;2;2;
76661;PMS5003;65579;45.534;6.212;2023-07-13T14:49:32;1;1;
76661;PMS5003;65579;45.534;6.212;2023-07-13T14:51:58;2;2;
76661;PMS5003;65579;45.534;6.212;2023-07-13T14:54:22;2;2;
76661;PMS5003;65579;45.534;6.212;2023-07-13T14:56:48;2;2;
76661;PMS5003;65579;45.534;6.212;2023-07-13T14:59:14;2;2;
76661;PMS5003;65579;45.534;6.212;2023-07-13T15:01:39;2;2;
76661;PMS5003;65579;45.534;6.212;2023-07-13T15:04:05;2;2;
76661;PMS5003;65579;45.534;6.212;2023-07-13T15:06:30;2;2;
76661;PMS5003;65579;45.534;6.212;2023-07-13T15:08:56;2;2;
76661;PMS5003;65579;45.534;6.212;2023-07-13T15:11:22;2;2;
76661;PMS5003;65579;45.534;6.212;2023-07-13T15:13:47;2;2;
76661;PMS5003;65579;45.534;6.212;2023-07-13T15:16:16;1;1;
76661;PMS5003;65579;45.534;6.212;2023-07-13T15:18:39;1;1;
76661;PMS5003;65579;45.534;6.212;2023-07-13T15:21:04;2;2;
76661;PMS5003;65579;45.534;6.212;2023-07-13T15:23:29;2;2;
76661;PMS5003;65579;45.534;6.212;2023-07-13T15:25:55;2;2;
76661;PMS5003;65579;45.534;6.212;2023-07-13T15:28:20;3;3;
76661;PMS5003;65579;45.534;6.212;2023-07-13T15:30:47;2;2;
76661;PMS5003;65579;45.534;6.212;2023-07-13T15:33:14;2;2;
76661;PMS5003;65579;45.534;6.212;2023-07-13T15:35:38;3;3;
76661;PMS5003;65579;45.534;6.212;2023-07-13T15:40:29;2;2;
76661;PMS5003;65579;45.534;6.212;2023-07-13T15:42:54;2;2;
76661;PMS5003;65579;45.534;6.212;2023-07-13T15:45:22;1;1;
76661;PMS5003;65579;45.534;6.212;2023-07-13T15:47:45;1;1;
76661;PMS5003;65579;45.534;6.212;2023-07-13T15:50:13;4;2;
76661;PMS5003;65579;45.534;6.212;2023-07-13T15:52:37;2;2;
76661;PMS5003;65579;45.534;6.212;2023-07-13T15:55:02;3;3;
76661;PMS5003;65579;45.534;6.212;2023-07-13T15:57:28;2;2;
76661;PMS5003;65579;45.534;6.212;2023-07-13T15:59:53;3;3;
76661;PMS5003;65579;45.534;6.212;2023-07-13T16:02:19;2;2;
76661;PMS5003;65579;45.534;6.212;2023-07-13T16:04:45;2;2;
76661;PMS5003;65579;45.534;6.212;2023-07-13T16:07:10;2;2;
76661;PMS5003;65579;45.534;6.212;2023-07-13T16:09:35;4;4;
76661;PMS5003;65579;45.534;6.212;2023-07-13T16:12:03;1;1;
76661;PMS5003;65579;45.534;6.212;2023-07-13T16:14:27;3;3;
76661;PMS5003;65579;45.534;6.212;2023-07-13T16:16:52;2;2;
76661;PMS5003;65579;45.534;6.212;2023-07-13T16:19:18;3;3;
76661;PMS5003;65579;45.534;6.212;2023-07-13T16:21:44;1;1;
76661;PMS5003;65579;45.534;6.212;2023-07-13T16:24:13;3;3;
76661;PMS5003;65579;45.534;6.212;2023-07-13T16:26:35;2;2;
76661;PMS5003;65579;45.534;6.212;2023-07-13T16:29:00;3;3;
76661;PMS5003;65579;45.534;6.212;2023-07-13T16:31:27;3;3;
76661;PMS5003;65579;45.534;6.212;2023-07-13T16:33:52;2;2;
76661;PMS5003;65579;45.534;6.212;2023-07-13T16:36:16;0;0;
76661;PMS5003;65579;45.534;6.212;2023-07-13T16:38:42;3;3;
76661;PMS5003;65579;45.534;6.212;2023-07-13T16:41:08;3;3;
76661;PMS5003;65579;45.534;6.212;2023-07-13T16:43:33;3;2;
76661;PMS5003;65579;45.534;6.212;2023-07-13T16:45:59;1;1;
76661;PMS5003;65579;45.534;6.212;2023-07-13T16:48:24;2;2;
76661;PMS5003;65579;45.534;6.212;2023-07-13T16:50:52;3;2;
76661;PMS5003;65579;45.534;6.212;2023-07-13T16:53:17;3;3;
76661;PMS5003;65579;45.534;6.212;2023-07-13T16:55:43;4;3;
76661;PMS5003;65579;45.534;6.212;2023-07-13T16:58:08;2;2;
76661;PMS5003;65579;45.534;6.212;2023-07-13T17:00:32;2;2;
76661;PMS5003;65579;45.534;6.212;2023-07-13T17:02:58;2;2;